Time;durP1;ratioP1;P1;durP2;ratioP2;P2;SDS_P1;SDS_P2;PMS_P1;PMS_P2;Temp;Humidity;BMP_temperature;BMP_pressure;BME280_temperature;BME280_humidity;BME280_pressure;Samples;Min_cycle;Max_cycle;Signal;HPM_P1;HPM_P2
2022/01/12 00:00:41;;;;;;;9.30;7.43;;;;;;;;;;6159292;23;20198;-83
2022/01/12 00:03:10;;;;;;;11.27;8.10;;;;;;;;;;6159913;23;20217;-82
2022/01/12 00:05:37;;;;;;;8.67;7.30;;;;;;;;;;6156957;23;20159;-83
2022/01/12 00:08:07;;;;;;;11.13;8.20;;;;;;;;;;6158496;23;20253;-84
2022/01/12 00:10:34;;;;;;;10.30;7.60;;;;;;;;;;6159686;23;20178;-82
2022/01/12 00:13:02;;;;;;;9.33;7.93;;;;;;;;;;6159771;23;20199;-83
2022/01/12 00:15:29;;;;;;;9.00;7.40;;;;;;;;;;6159055;23;20174;-83
2022/01/12 00:17:58;;;;;;;8.60;7.10;;;;;;;;;;6158092;23;20174;-82
2022/01/12 00:20:25;;;;;;;9.03;7.60;;;;;;;;;;6159515;23;20171;-83
2022/01/12 00:22:55;;;;;;;9.60;7.10;;;;;;;;;;6159425;23;20174;-83
2022/01/12 00:25:43;;;;;;;8.77;7.67;;;;;;;;;;6159789;23;20266;-83
2022/01/12 00:33:44;;;;;;;9.83;7.37;;;;;;;;;;6159877;23;20221;-80
2022/01/12 00:36:11;;;;;;;9.57;7.43;;;;;;;;;;6159984;23;20217;-83
2022/01/12 00:38:38;;;;;;;9.17;7.53;;;;;;;;;;6159755;23;20178;-82
2022/01/12 00:41:06;;;;;;;9.43;7.37;;;;;;;;;;6159746;23;20234;-83
2022/01/12 00:43:34;;;;;;;9.13;7.50;;;;;;;;;;6159613;23;20198;-82
2022/01/12 00:46:03;;;;;;;10.57;8.30;;;;;;;;;;6159353;23;20178;-83
2022/01/12 00:48:31;;;;;;;10.13;7.77;;;;;;;;;;6157816;23;20185;-83
2022/01/12 00:51:01;;;;;;;10.73;7.90;;;;;;;;;;6159320;23;20175;-82
2022/01/12 00:53:28;;;;;;;10.10;7.73;;;;;;;;;;6158813;23;20200;-83
2022/01/12 00:55:55;;;;;;;10.40;8.10;;;;;;;;;;6159602;23;20183;-82
2022/01/12 00:58:23;;;;;;;9.57;7.20;;;;;;;;;;6159186;23;20179;-83
2022/01/12 01:00:50;;;;;;;9.37;7.47;;;;;;;;;;6159612;23;20198;-82
2022/01/12 01:03:17;;;;;;;8.90;7.23;;;;;;;;;;6158778;23;20199;-81
2022/01/12 01:05:45;;;;;;;9.37;7.97;;;;;;;;;;6159043;23;20175;-83
2022/01/12 01:08:14;;;;;;;9.03;7.90;;;;;;;;;;6159227;23;20194;-83
2022/01/12 01:10:45;;;;;;;9.57;7.27;;;;;;;;;;6160066;23;20175;-83
2022/01/12 01:13:14;;;;;;;10.23;8.17;;;;;;;;;;6159006;23;20265;-80
2022/01/12 01:26:52;;;;;;;10.57;7.87;;;;;;;;;;6166830;23;20162;-83
2022/01/12 01:29:19;;;;;;;8.50;7.43;;;;;;;;;;6162321;23;20206;-82
2022/01/12 01:31:47;;;;;;;10.13;7.53;;;;;;;;;;6160066;23;20217;-82
2022/01/12 01:34:15;;;;;;;10.50;7.90;;;;;;;;;;6159653;23;20205;-83
2022/01/12 01:36:44;;;;;;;10.50;7.50;;;;;;;;;;6160180;23;20174;-83
2022/01/12 01:39:14;;;;;;;10.20;7.63;;;;;;;;;;6166512;23;20182;-83
2022/01/12 01:41:44;;;;;;;9.23;7.10;;;;;;;;;;6159374;23;20178;-83
2022/01/12 01:55:19;;;;;;;10.30;7.57;;;;;;;;;;6159739;23;20198;-82
2022/01/12 01:57:46;;;;;;;8.80;7.37;;;;;;;;;;6158517;23;20175;-82
2022/01/12 02:00:16;;;;;;;10.70;7.87;;;;;;;;;;6158712;23;20174;-82
2022/01/12 02:02:45;;;;;;;8.60;6.97;;;;;;;;;;6159295;23;20198;-83
2022/01/12 02:05:13;;;;;;;10.60;7.40;;;;;;;;;;6158919;23;20189;-83
2022/01/12 02:07:40;;;;;;;9.73;7.43;;;;;;;;;;6157848;23;20183;-83
2022/01/12 02:10:08;;;;;;;11.27;8.23;;;;;;;;;;6159176;23;20181;-83
2022/01/12 02:12:38;;;;;;;8.63;7.27;;;;;;;;;;6159501;23;20190;-82
2022/01/12 02:15:13;;;;;;;8.57;7.53;;;;;;;;;;6159516;23;20250;-83
2022/01/12 02:17:53;;;;;;;9.03;6.80;;;;;;;;;;6160461;23;20248;-83
2022/01/12 02:35:12;;;;;;;9.87;7.67;;;;;;;;;;6161793;23;20166;-82
2022/01/12 02:39:47;;;;;;;9.90;7.87;;;;;;;;;;6157522;23;20363;-83
2022/01/12 02:40:08;;;;;;;8.80;7.43;;;;;;;;;;6157578;23;20178;-82
2022/01/12 02:42:40;;;;;;;10.57;8.07;;;;;;;;;;6157167;23;20171;-83
2022/01/12 02:50:45;;;;;;;9.43;7.70;;;;;;;;;;6157200;23;20154;-82
2022/01/12 02:56:00;;;;;;;8.97;7.83;;;;;;;;;;6156988;23;20205;-82
2022/01/12 02:58:31;;;;;;;9.90;7.10;;;;;;;;;;6157089;23;20174;-82
2022/01/12 03:01:21;;;;;;;10.03;7.27;;;;;;;;;;6159606;23;20174;-83
2022/01/12 03:03:51;;;;;;;9.20;7.10;;;;;;;;;;6156995;23;20200;-82
2022/01/12 03:06:22;;;;;;;8.57;7.30;;;;;;;;;;6155995;23;20179;-82
2022/01/12 03:08:49;;;;;;;9.57;7.33;;;;;;;;;;6155946;23;20167;-82
2022/01/12 03:11:19;;;;;;;10.97;8.10;;;;;;;;;;6156240;23;20171;-82
2022/01/12 03:13:46;;;;;;;10.57;8.50;;;;;;;;;;6156169;23;20202;-82
2022/01/12 03:16:15;;;;;;;8.40;7.53;;;;;;;;;;6156148;23;20174;-82
2022/01/12 03:18:43;;;;;;;9.97;8.17;;;;;;;;;;6155887;23;20203;-81
2022/01/12 03:21:12;;;;;;;8.63;7.70;;;;;;;;;;6155710;23;20177;-82
2022/01/12 03:23:40;;;;;;;9.53;7.43;;;;;;;;;;6155324;23;20246;-83
2022/01/12 03:26:11;;;;;;;9.20;7.90;;;;;;;;;;6155227;23;20171;-82
2022/01/12 03:28:41;;;;;;;10.20;7.90;;;;;;;;;;6155110;23;20237;-82
2022/01/12 03:31:15;;;;;;;11.43;8.13;;;;;;;;;;6173279;23;20190;-84
2022/01/12 03:33:58;;;;;;;9.17;7.33;;;;;;;;;;6181843;23;20200;-85
2022/01/12 03:36:41;;;;;;;9.63;7.97;;;;;;;;;;6182382;23;20186;-85
2022/01/12 03:39:09;;;;;;;9.73;7.67;;;;;;;;;;6175751;23;20171;-84
2022/01/12 03:41:37;;;;;;;9.63;7.20;;;;;;;;;;6160531;23;20177;-82
2022/01/12 03:44:07;;;;;;;9.47;7.53;;;;;;;;;;6161117;23;20198;-81
2022/01/12 03:46:36;;;;;;;9.70;7.70;;;;;;;;;;6160620;23;20174;-82
2022/01/12 03:49:04;;;;;;;10.53;7.20;;;;;;;;;;6160392;23;20178;-81
2022/01/12 03:51:32;;;;;;;8.17;6.70;;;;;;;;;;6160366;23;20175;-82
2022/01/12 03:54:09;;;;;;;8.60;7.30;;;;;;;;;;6160988;23;20234;-82
2022/01/12 03:56:39;;;;;;;9.10;7.23;;;;;;;;;;6161103;23;20177;-82
2022/01/12 03:59:08;;;;;;;9.23;8.07;;;;;;;;;;6160606;23;20197;-82
2022/01/12 04:01:36;;;;;;;10.53;7.27;;;;;;;;;;6160676;23;20171;-82
2022/01/12 04:04:07;;;;;;;10.77;7.80;;;;;;;;;;6159258;23;20194;-82
2022/01/12 04:09:27;;;;;;;9.47;6.77;;;;;;;;;;6092116;23;20229;-82
2022/01/12 04:11:55;;;;;;;10.30;7.90;;;;;;;;;;6161436;23;20238;-81
2022/01/12 04:14:24;;;;;;;9.63;6.73;;;;;;;;;;6161748;23;20195;-82
2022/01/12 04:16:51;;;;;;;9.43;7.33;;;;;;;;;;6161104;23;20187;-83
2022/01/12 04:19:23;;;;;;;9.83;7.87;;;;;;;;;;6162829;23;20174;-82
2022/01/12 04:21:51;;;;;;;10.43;7.93;;;;;;;;;;6164024;23;20202;-82
2022/01/12 04:24:18;;;;;;;9.63;7.70;;;;;;;;;;6172389;23;20210;-84
2022/01/12 04:26:46;;;;;;;9.90;7.60;;;;;;;;;;6171796;23;20504;-82
2022/01/12 04:29:17;;;;;;;9.23;7.07;;;;;;;;;;6171979;23;20175;-81
2022/01/12 04:31:49;;;;;;;10.73;8.40;;;;;;;;;;6172622;23;20227;-81
2022/01/12 04:34:16;;;;;;;11.27;8.33;;;;;;;;;;6176272;23;20282;-85
2022/01/12 04:36:44;;;;;;;8.97;7.77;;;;;;;;;;6174811;23;20168;-79
2022/01/12 04:39:11;;;;;;;9.73;7.70;;;;;;;;;;6172790;23;20184;-80
2022/01/12 04:41:38;;;;;;;9.50;7.90;;;;;;;;;;6168140;23;20171;-82
2022/01/12 04:44:07;;;;;;;10.03;7.53;;;;;;;;;;6163205;23;20191;-82
2022/01/12 04:46:49;;;;;;;11.50;7.87;;;;;;;;;;6162454;23;20185;-83
2022/01/12 04:49:47;;;;;;;11.07;7.97;;;;;;;;;;6163856;23;20170;-81
2022/01/12 04:52:14;;;;;;;11.83;7.70;;;;;;;;;;6164111;23;20222;-82
2022/01/12 04:54:42;;;;;;;9.80;7.70;;;;;;;;;;6163811;23;20194;-82
2022/01/12 04:57:09;;;;;;;9.57;7.30;;;;;;;;;;6163683;23;20191;-81
2022/01/12 04:59:47;;;;;;;9.37;7.33;;;;;;;;;;6163481;23;20182;-81
2022/01/12 05:07:56;;;;;;;9.93;7.87;;;;;;;;;;6157908;23;20189;-83
2022/01/12 05:13:08;;;;;;;10.63;7.87;;;;;;;;;;6156844;23;20233;-81
2022/01/12 05:15:36;;;;;;;12.07;8.03;;;;;;;;;;6156825;23;20241;-81
2022/01/12 05:18:04;;;;;;;10.73;8.20;;;;;;;;;;6155855;23;20178;-79
2022/01/12 05:20:33;;;;;;;11.37;8.27;;;;;;;;;;6157480;23;20242;-82
2022/01/12 05:23:00;;;;;;;10.47;7.63;;;;;;;;;;6156664;23;20692;-82
2022/01/12 05:25:30;;;;;;;10.97;8.37;;;;;;;;;;6157080;23;20179;-82
2022/01/12 05:28:01;;;;;;;11.47;8.13;;;;;;;;;;6155222;23;20174;-82
2022/01/12 05:30:28;;;;;;;11.03;7.50;;;;;;;;;;6156676;23;20201;-82
2022/01/12 05:32:56;;;;;;;9.13;7.57;;;;;;;;;;6156658;23;20200;-82
2022/01/12 05:35:24;;;;;;;10.20;8.00;;;;;;;;;;6157964;23;20182;-81
2022/01/12 05:37:54;;;;;;;10.90;8.17;;;;;;;;;;6156247;23;20170;-82
2022/01/12 05:40:22;;;;;;;10.10;7.70;;;;;;;;;;6157287;23;20191;-82
2022/01/12 05:42:50;;;;;;;10.90;7.93;;;;;;;;;;6156552;23;20190;-79
2022/01/12 05:45:19;;;;;;;9.13;8.10;;;;;;;;;;6156678;23;20174;-83
2022/01/12 05:50:38;;;;;;;9.93;8.10;;;;;;;;;;6163043;23;20189;-81
2022/01/12 05:53:07;;;;;;;10.90;8.47;;;;;;;;;;6171456;23;20291;-79
2022/01/12 05:55:38;;;;;;;9.97;8.03;;;;;;;;;;6164545;23;20181;-80
2022/01/12 05:58:05;;;;;;;12.50;10.17;;;;;;;;;;6154366;23;20167;-82
2022/01/12 06:00:52;;;;;;;11.50;9.50;;;;;;;;;;6154585;23;20245;-82
2022/01/12 06:03:22;;;;;;;11.23;8.60;;;;;;;;;;6156036;23;20218;-81
2022/01/12 06:05:55;;;;;;;10.93;8.63;;;;;;;;;;6157532;23;20170;-81
2022/01/12 06:08:28;;;;;;;11.37;8.23;;;;;;;;;;6155545;23;20185;-81
2022/01/12 06:11:07;;;;;;;11.43;9.27;;;;;;;;;;6156395;23;20257;-80
2022/01/12 06:13:35;;;;;;;10.57;8.57;;;;;;;;;;6155991;23;20199;-79
2022/01/12 06:18:52;;;;;;;12.37;8.87;;;;;;;;;;6154694;23;20170;-81
2022/01/12 06:21:19;;;;;;;13.63;9.63;;;;;;;;;;6156115;23;20194;-82
2022/01/12 06:23:56;;;;;;;12.33;11.00;;;;;;;;;;6155327;23;20167;-81
2022/01/12 06:29:39;;;;;;;11.60;9.73;;;;;;;;;;6152499;23;20227;-81
2022/01/12 06:32:09;;;;;;;12.00;9.30;;;;;;;;;;6156130;23;20198;-79
2022/01/12 06:34:37;;;;;;;15.00;9.47;;;;;;;;;;6156148;23;20198;-82
2022/01/12 06:37:06;;;;;;;12.40;9.60;;;;;;;;;;6155238;23;20233;-81
2022/01/12 06:39:35;;;;;;;15.27;10.10;;;;;;;;;;6156183;23;20182;-81
2022/01/12 06:42:04;;;;;;;16.87;11.93;;;;;;;;;;6155676;23;20175;-82
2022/01/12 06:44:31;;;;;;;15.57;11.87;;;;;;;;;;6155644;23;20233;-82
2022/01/12 06:47:02;;;;;;;13.23;10.57;;;;;;;;;;6158150;23;20179;-80
2022/01/12 06:49:39;;;;;;;12.77;10.30;;;;;;;;;;6155499;23;20225;-79
2022/01/12 06:52:07;;;;;;;13.90;11.00;;;;;;;;;;6155559;23;20171;-83
2022/01/12 06:54:42;;;;;;;14.07;11.13;;;;;;;;;;6156798;23;20195;-84
2022/01/12 06:57:10;;;;;;;11.60;9.67;;;;;;;;;;6154017;23;20177;-85
2022/01/12 06:59:38;;;;;;;11.63;9.67;;;;;;;;;;6155926;23;20182;-82
2022/01/12 07:02:14;;;;;;;14.00;10.33;;;;;;;;;;6157602;23;20257;-85
2022/01/12 07:04:44;;;;;;;11.63;9.27;;;;;;;;;;6158492;23;20173;-82
2022/01/12 07:07:11;;;;;;;10.60;9.03;;;;;;;;;;6157373;23;20222;-82
2022/01/12 07:09:40;;;;;;;12.53;9.63;;;;;;;;;;6157773;23;20206;-82
2022/01/12 07:12:08;;;;;;;12.70;10.67;;;;;;;;;;6158871;23;20155;-80
2022/01/12 07:14:35;;;;;;;13.03;9.63;;;;;;;;;;6156786;23;20191;-80
2022/01/12 07:17:03;;;;;;;14.57;10.03;;;;;;;;;;6156994;23;20178;-85
2022/01/12 07:19:30;;;;;;;12.67;9.67;;;;;;;;;;6157507;23;20170;-82
2022/01/12 07:21:58;;;;;;;12.70;9.80;;;;;;;;;;6157697;23;20171;-82
2022/01/12 07:24:25;;;;;;;11.23;9.00;;;;;;;;;;6157718;23;20197;-83
2022/01/12 07:26:54;;;;;;;13.90;10.23;;;;;;;;;;6157786;23;20171;-80
2022/01/12 07:29:21;;;;;;;16.37;11.00;;;;;;;;;;6159112;23;20495;-83
2022/01/12 07:31:49;;;;;;;16.73;10.73;;;;;;;;;;6157854;23;20221;-82
2022/01/12 07:34:17;;;;;;;14.20;10.73;;;;;;;;;;6157521;23;20191;-83
2022/01/12 07:36:44;;;;;;;17.13;12.47;;;;;;;;;;6155071;23;20238;-82
2022/01/12 07:39:12;;;;;;;18.80;13.43;;;;;;;;;;6158125;23;20174;-81
2022/01/12 07:41:39;;;;;;;19.17;13.60;;;;;;;;;;6159061;23;20194;-82
2022/01/12 07:44:08;;;;;;;19.63;13.70;;;;;;;;;;6157809;23;20167;-82
2022/01/12 07:46:35;;;;;;;18.70;13.70;;;;;;;;;;6157139;23;20175;-81
2022/01/12 07:49:03;;;;;;;22.13;14.57;;;;;;;;;;6158090;23;20226;-81
2022/01/12 07:51:30;;;;;;;23.13;15.70;;;;;;;;;;6157778;23;20242;-81
2022/01/12 07:53:57;;;;;;;21.53;15.20;;;;;;;;;;6157994;23;20190;-81
2022/01/12 07:56:25;;;;;;;19.17;15.00;;;;;;;;;;6156567;23;20179;-82
2022/01/12 07:58:52;;;;;;;20.67;14.43;;;;;;;;;;6157034;23;20197;-82
2022/01/12 08:01:21;;;;;;;18.83;14.63;;;;;;;;;;6156847;23;20253;-81
2022/01/12 08:03:53;;;;;;;19.20;14.10;;;;;;;;;;6162646;23;20177;-78
2022/01/12 08:06:21;;;;;;;19.77;14.30;;;;;;;;;;6158504;23;20175;-81
2022/01/12 08:08:48;;;;;;;19.13;14.03;;;;;;;;;;6157139;23;20171;-80
2022/01/12 08:11:17;;;;;;;18.13;13.43;;;;;;;;;;6157688;23;20226;-82
2022/01/12 08:13:45;;;;;;;18.70;13.07;;;;;;;;;;6157970;23;20201;-80
2022/01/12 08:16:13;;;;;;;19.70;12.87;;;;;;;;;;6157672;23;20192;-79
2022/01/12 08:18:42;;;;;;;15.47;12.93;;;;;;;;;;6156168;23;20225;-81
2022/01/12 08:21:11;;;;;;;16.13;13.03;;;;;;;;;;6157554;23;20194;-82
2022/01/12 08:23:38;;;;;;;17.60;14.13;;;;;;;;;;6157672;23;20175;-81
2022/01/12 08:26:05;;;;;;;17.70;13.50;;;;;;;;;;6157386;23;20175;-80
2022/01/12 08:28:33;;;;;;;19.73;13.70;;;;;;;;;;6157515;23;20175;-81
2022/01/12 08:31:00;;;;;;;17.67;13.43;;;;;;;;;;6158832;23;20241;-81
2022/01/12 08:33:28;;;;;;;17.87;13.83;;;;;;;;;;6157021;23;20198;-81
2022/01/12 08:35:57;;;;;;;18.00;13.80;;;;;;;;;;6156505;23;20177;-82
2022/01/12 08:38:24;;;;;;;17.47;13.33;;;;;;;;;;6156227;23;20178;-86
2022/01/12 08:40:52;;;;;;;17.07;13.10;;;;;;;;;;6156473;23;20677;-82
2022/01/12 08:43:19;;;;;;;16.60;13.20;;;;;;;;;;6156560;23;20175;-81
2022/01/12 08:45:47;;;;;;;17.93;13.17;;;;;;;;;;6155663;23;20259;-81
2022/01/12 08:48:14;;;;;;;17.97;13.90;;;;;;;;;;6155115;23;20205;-82
2022/01/12 08:50:42;;;;;;;18.73;13.47;;;;;;;;;;6156360;23;20191;-82
2022/01/12 08:53:12;;;;;;;19.37;14.50;;;;;;;;;;6156092;23;20170;-81
2022/01/12 08:55:40;;;;;;;18.90;13.57;;;;;;;;;;6159010;23;20183;-83
2022/01/12 08:58:08;;;;;;;19.67;14.63;;;;;;;;;;6165950;23;20171;-82
2022/01/12 09:00:36;;;;;;;20.63;14.57;;;;;;;;;;6169247;23;20210;-82
2022/01/12 09:03:04;;;;;;;17.73;13.70;;;;;;;;;;6165888;23;20229;-83
2022/01/12 09:05:31;;;;;;;18.70;13.80;;;;;;;;;;6162070;23;20186;-83
2022/01/12 09:08:00;;;;;;;20.10;14.30;;;;;;;;;;6171847;23;20178;-82
2022/01/12 09:10:31;;;;;;;18.60;14.37;;;;;;;;;;6160674;23;20217;-81
2022/01/12 09:12:58;;;;;;;17.93;14.63;;;;;;;;;;6159288;23;20170;-82
2022/01/12 09:15:26;;;;;;;18.97;14.00;;;;;;;;;;6156739;23;20190;-82
2022/01/12 09:17:53;;;;;;;22.20;16.30;;;;;;;;;;6156270;23;20175;-82
2022/01/12 09:20:21;;;;;;;21.67;15.53;;;;;;;;;;6155808;23;20198;-82
2022/01/12 09:22:49;;;;;;;21.53;15.37;;;;;;;;;;6155979;23;20203;-81
2022/01/12 09:25:16;;;;;;;20.67;16.10;;;;;;;;;;6155916;23;20174;-82
2022/01/12 09:27:45;;;;;;;17.77;14.00;;;;;;;;;;6156148;23;20174;-82
2022/01/12 09:30:13;;;;;;;19.83;15.10;;;;;;;;;;6156004;23;20191;-82
2022/01/12 09:32:41;;;;;;;19.43;15.93;;;;;;;;;;6157704;23;20255;-81
2022/01/12 09:35:09;;;;;;;21.57;15.90;;;;;;;;;;6156901;23;20259;-83
2022/01/12 09:37:36;;;;;;;18.23;14.63;;;;;;;;;;6156606;23;20197;-82
2022/01/12 09:40:04;;;;;;;18.73;14.63;;;;;;;;;;6158064;23;20194;-83
2022/01/12 09:42:32;;;;;;;17.10;13.60;;;;;;;;;;6156568;23;20174;-82
2022/01/12 09:45:07;;;;;;;17.70;12.97;;;;;;;;;;6157773;23;20611;-82
2022/01/12 09:47:35;;;;;;;14.47;12.23;;;;;;;;;;6156749;23;20178;-83
2022/01/12 09:50:02;;;;;;;14.53;12.57;;;;;;;;;;6155482;23;20190;-80
2022/01/12 09:52:30;;;;;;;14.53;12.50;;;;;;;;;;6156244;23;20174;-82
2022/01/12 09:54:59;;;;;;;13.57;12.10;;;;;;;;;;6154983;23;20210;-79
2022/01/12 09:57:26;;;;;;;15.13;12.00;;;;;;;;;;6154667;23;20185;-79
2022/01/12 09:59:54;;;;;;;15.23;11.70;;;;;;;;;;6155417;23;20190;-81
2022/01/12 10:02:22;;;;;;;13.33;11.30;;;;;;;;;;6156590;23;20174;-81
2022/01/12 10:05:00;;;;;;;13.70;11.90;;;;;;;;;;6155438;23;20248;-81
2022/01/12 10:07:27;;;;;;;14.03;11.57;;;;;;;;;;6155398;23;20178;-81
2022/01/12 10:10:00;;;;;;;11.50;10.30;;;;;;;;;;6155267;23;20202;-81
2022/01/12 10:12:28;;;;;;;11.43;10.03;;;;;;;;;;6155854;23;20186;-82
2022/01/12 10:15:11;;;;;;;11.07;9.93;;;;;;;;;;6157469;23;20194;-80
2022/01/12 10:17:49;;;;;;;11.77;10.53;;;;;;;;;;6157119;23;20246;-80
2022/01/12 10:20:19;;;;;;;14.60;11.27;;;;;;;;;;6154963;23;20310;-81
2022/01/12 10:22:57;;;;;;;13.10;10.50;;;;;;;;;;6154298;23;20190;-81
2022/01/12 10:25:25;;;;;;;11.77;9.87;;;;;;;;;;6155615;23;20173;-81
2022/01/12 10:27:52;;;;;;;11.57;10.27;;;;;;;;;;6154836;23;20229;-80
2022/01/12 10:30:21;;;;;;;12.03;10.13;;;;;;;;;;6155894;23;20195;-83
2022/01/12 10:32:59;;;;;;;12.40;11.10;;;;;;;;;;6156697;23;20225;-81
2022/01/12 10:35:27;;;;;;;12.20;10.30;;;;;;;;;;6157350;23;20178;-80
2022/01/12 10:38:08;;;;;;;12.87;11.20;;;;;;;;;;6158515;23;20174;-82
2022/01/12 10:40:48;;;;;;;16.00;11.77;;;;;;;;;;6158543;23;20279;-81
2022/01/12 10:43:32;;;;;;;14.37;11.37;;;;;;;;;;6159191;23;20752;-82
2022/01/12 10:46:00;;;;;;;12.10;10.80;;;;;;;;;;6158342;23;20170;-82
2022/01/12 10:48:39;;;;;;;16.20;12.07;;;;;;;;;;6156574;23;20226;-81
2022/01/12 10:51:07;;;;;;;13.33;11.90;;;;;;;;;;6158073;23;20222;-78
2022/01/12 10:53:38;;;;;;;15.40;12.23;;;;;;;;;;6157296;23;20184;-78
2022/01/12 10:56:10;;;;;;;16.03;13.40;;;;;;;;;;6157578;23;20183;-79
2022/01/12 10:58:39;;;;;;;17.43;13.87;;;;;;;;;;6158254;23;20174;-78
2022/01/12 11:01:06;;;;;;;16.87;13.87;;;;;;;;;;6158459;23;20205;-80
2022/01/12 11:03:35;;;;;;;15.60;13.83;;;;;;;;;;6158457;23;20174;-79
2022/01/12 11:06:06;;;;;;;15.63;13.30;;;;;;;;;;6156952;23;20174;-82
2022/01/12 11:08:33;;;;;;;16.77;13.53;;;;;;;;;;6157056;23;20171;-82
2022/01/12 11:11:07;;;;;;;17.60;13.93;;;;;;;;;;6157474;23;20198;-83
2022/01/12 11:13:37;;;;;;;19.35;16.15;;;;;;;;;;6153179;23;20432;-87
2022/01/12 11:16:05;;;;;;;17.00;14.57;;;;;;;;;;6157562;23;20191;-85
2022/01/12 11:18:38;;;;;;;16.57;13.77;;;;;;;;;;6156949;23;20230;-89
2022/01/12 11:21:15;;;;;;;16.73;13.33;;;;;;;;;;6156942;23;20174;-88
2022/01/12 11:23:44;;;;;;;17.20;13.53;;;;;;;;;;6158364;23;20195;-84
2022/01/12 11:26:18;;;;;;;15.40;13.23;;;;;;;;;;6159127;23;20162;-85
2022/01/12 11:28:46;;;;;;;15.03;12.40;;;;;;;;;;6160854;23;20229;-85
2022/01/12 11:31:18;;;;;;;15.63;13.43;;;;;;;;;;6162141;23;20166;-85
2022/01/12 11:33:47;;;;;;;13.57;11.90;;;;;;;;;;6158943;23;20201;-85
2022/01/12 11:36:16;;;;;;;15.23;12.03;;;;;;;;;;6157951;23;20245;-88
2022/01/12 11:38:47;;;;;;;13.27;11.87;;;;;;;;;;6156763;23;20175;-88
2022/01/12 11:41:16;;;;;;;12.87;11.33;;;;;;;;;;6158167;23;20175;-86
2022/01/12 11:43:44;;;;;;;15.70;11.83;;;;;;;;;;6164343;23;20194;-84
2022/01/12 11:46:12;;;;;;;12.70;10.73;;;;;;;;;;6158148;23;20174;-85
2022/01/12 11:48:43;;;;;;;15.17;11.60;;;;;;;;;;6156287;23;20194;-84
2022/01/12 11:51:12;;;;;;;11.20;10.07;;;;;;;;;;6155530;23;20159;-85
2022/01/12 11:53:49;;;;;;;13.27;11.50;;;;;;;;;;6156106;23;20195;-86
2022/01/12 11:56:18;;;;;;;12.03;10.73;;;;;;;;;;6155783;23;20197;-87
2022/01/12 11:58:56;;;;;;;14.67;11.43;;;;;;;;;;6155356;23;20174;-87
2022/01/12 12:01:24;;;;;;;14.20;11.20;;;;;;;;;;6156770;23;20174;-86
2022/01/12 12:03:59;;;;;;;12.70;11.30;;;;;;;;;;6157219;23;20195;-86
2022/01/12 12:06:28;;;;;;;14.10;11.77;;;;;;;;;;6156797;23;20177;-86
2022/01/12 12:08:56;;;;;;;13.13;11.57;;;;;;;;;;6156321;23;20178;-87
2022/01/12 12:11:26;;;;;;;13.13;11.43;;;;;;;;;;6156282;23;20182;-87
2022/01/12 12:13:53;;;;;;;14.43;10.93;;;;;;;;;;6156421;23;20203;-86
2022/01/12 12:16:21;;;;;;;13.40;11.50;;;;;;;;;;6156911;23;20197;-86
2022/01/12 12:18:54;;;;;;;14.00;11.33;;;;;;;;;;6155976;23;20175;-90
2022/01/12 12:21:24;;;;;;;13.03;10.93;;;;;;;;;;6157778;23;20619;-86
2022/01/12 12:23:53;;;;;;;13.13;11.43;;;;;;;;;;6157548;23;20201;-86
2022/01/12 12:26:21;;;;;;;14.60;12.33;;;;;;;;;;6158072;23;20292;-83
2022/01/12 12:28:55;;;;;;;15.30;11.97;;;;;;;;;;6158330;23;20179;-86
2022/01/12 12:31:24;;;;;;;13.20;10.73;;;;;;;;;;6159714;23;20182;-86
2022/01/12 12:34:05;;;;;;;12.03;10.50;;;;;;;;;;6157538;23;20202;-87
2022/01/12 12:36:35;;;;;;;11.67;9.80;;;;;;;;;;6157338;23;20186;-86
2022/01/12 12:39:08;;;;;;;13.67;11.13;;;;;;;;;;6157378;23;20241;-86
2022/01/12 12:41:40;;;;;;;10.70;9.27;;;;;;;;;;6160392;23;20173;-86
2022/01/12 12:44:07;;;;;;;11.20;9.67;;;;;;;;;;6159479;23;20249;-86
2022/01/12 12:46:45;;;;;;;11.73;10.37;;;;;;;;;;6159508;23;20171;-86
2022/01/12 12:49:12;;;;;;;11.50;10.30;;;;;;;;;;6158463;23;20171;-87
2022/01/12 12:51:42;;;;;;;12.20;10.90;;;;;;;;;;6157737;23;20685;-86
2022/01/12 12:54:13;;;;;;;12.93;10.23;;;;;;;;;;6159098;23;20201;-86
2022/01/12 12:56:47;;;;;;;14.97;10.67;;;;;;;;;;6156917;23;20237;-86
2022/01/12 12:59:15;;;;;;;13.00;10.20;;;;;;;;;;6158607;23;20229;-87
2022/01/12 13:01:45;;;;;;;11.60;10.37;;;;;;;;;;6159606;23;20175;-86
2022/01/12 13:04:13;;;;;;;13.53;11.33;;;;;;;;;;6160226;23;20191;-86
2022/01/12 13:06:42;;;;;;;11.53;10.33;;;;;;;;;;6160433;23;20178;-86
2022/01/12 13:09:13;;;;;;;13.93;10.90;;;;;;;;;;6159991;23;20178;-86
2022/01/12 13:11:42;;;;;;;12.37;10.57;;;;;;;;;;6156745;23;20181;-86
2022/01/12 13:14:10;;;;;;;12.73;11.43;;;;;;;;;;6156052;23;20214;-87
2022/01/12 13:16:44;;;;;;;12.50;11.10;;;;;;;;;;6154652;23;20191;-87
2022/01/12 13:19:22;;;;;;;12.27;10.73;;;;;;;;;;6156086;23;20158;-86
2022/01/12 13:21:49;;;;;;;14.07;11.73;;;;;;;;;;6156059;23;20170;-87
2022/01/12 13:24:17;;;;;;;11.70;10.43;;;;;;;;;;6155164;23;20186;-87
2022/01/12 13:26:45;;;;;;;13.80;11.60;;;;;;;;;;6155313;23;20174;-87
2022/01/12 13:29:13;;;;;;;12.97;11.23;;;;;;;;;;6155750;23;20298;-87
2022/01/12 13:31:41;;;;;;;14.13;10.67;;;;;;;;;;6155566;23;20174;-87
2022/01/12 13:34:14;;;;;;;12.10;10.67;;;;;;;;;;6156660;23;20202;-88
2022/01/12 13:36:48;;;;;;;12.57;10.43;;;;;;;;;;6154784;23;20194;-86
2022/01/12 13:39:16;;;;;;;12.13;10.83;;;;;;;;;;6157030;23;20174;-88
2022/01/12 13:41:46;;;;;;;12.53;10.67;;;;;;;;;;6156191;23;20229;-88
2022/01/12 13:44:16;;;;;;;14.47;11.57;;;;;;;;;;6155514;23;20269;-88
2022/01/12 13:46:51;;;;;;;14.93;12.23;;;;;;;;;;6155066;23;20166;-87
2022/01/12 13:49:22;;;;;;;13.73;11.10;;;;;;;;;;6156062;23;20245;-88
2022/01/12 13:52:00;;;;;;;13.53;10.73;;;;;;;;;;6155535;23;20201;-87
2022/01/12 13:54:31;;;;;;;12.20;10.90;;;;;;;;;;6155729;23;20713;-88
2022/01/12 13:57:01;;;;;;;12.30;10.57;;;;;;;;;;6154587;23;20195;-89
2022/01/12 13:59:30;;;;;;;13.73;10.80;;;;;;;;;;6155720;23;20178;-88
2022/01/12 14:01:58;;;;;;;13.17;11.20;;;;;;;;;;6155410;23;20225;-86
2022/01/12 14:04:29;;;;;;;13.23;11.23;;;;;;;;;;6156291;23;20194;-87
2022/01/12 14:07:01;;;;;;;14.47;11.03;;;;;;;;;;6156462;23;20167;-88
2022/01/12 14:09:31;;;;;;;13.47;11.70;;;;;;;;;;6156784;23;20187;-87
2022/01/12 14:12:08;;;;;;;15.30;10.93;;;;;;;;;;6158064;23;20181;-87
2022/01/12 14:14:45;;;;;;;13.00;11.13;;;;;;;;;;6158138;23;20202;-88
2022/01/12 14:17:22;;;;;;;12.23;10.93;;;;;;;;;;6157560;23;20185;-86
2022/01/12 14:19:52;;;;;;;12.33;10.77;;;;;;;;;;6160123;23;20174;-87
2022/01/12 14:22:20;;;;;;;12.67;10.87;;;;;;;;;;6159373;23;20171;-88
2022/01/12 14:24:54;;;;;;;12.50;11.03;;;;;;;;;;6158253;23;20194;-88
2022/01/12 14:27:23;;;;;;;14.60;11.00;;;;;;;;;;6156977;23;20174;-87
2022/01/12 14:29:50;;;;;;;13.23;11.30;;;;;;;;;;6158623;23;20182;-88
2022/01/12 14:32:18;;;;;;;12.67;11.03;;;;;;;;;;6160003;23;20171;-88
2022/01/12 14:34:45;;;;;;;13.20;11.80;;;;;;;;;;6161843;23;20195;-87
2022/01/12 14:37:14;;;;;;;13.87;11.23;;;;;;;;;;6159966;23;20484;-88
2022/01/12 14:39:42;;;;;;;12.50;11.20;;;;;;;;;;6162150;23;20171;-88
2022/01/12 14:42:10;;;;;;;14.03;11.63;;;;;;;;;;6159771;23;20243;-88
2022/01/12 14:44:39;;;;;;;13.07;10.73;;;;;;;;;;6159335;23;20246;-88
2022/01/12 14:47:07;;;;;;;13.80;12.30;;;;;;;;;;6158995;23;20173;-88
2022/01/12 14:49:34;;;;;;;12.80;11.30;;;;;;;;;;6159734;23;20175;-88
2022/01/12 14:52:02;;;;;;;13.10;11.07;;;;;;;;;;6157846;23;20229;-87
2022/01/12 14:54:29;;;;;;;13.90;11.80;;;;;;;;;;6157099;23;20195;-87
2022/01/12 14:56:57;;;;;;;14.80;11.93;;;;;;;;;;6158427;23;20187;-88
2022/01/12 14:59:24;;;;;;;12.63;10.97;;;;;;;;;;6158960;23;20210;-87
2022/01/12 15:01:54;;;;;;;13.80;11.43;;;;;;;;;;6158255;23;20175;-87
2022/01/12 15:04:27;;;;;;;13.73;11.10;;;;;;;;;;6158333;23;20204;-87
2022/01/12 15:06:55;;;;;;;14.33;11.20;;;;;;;;;;6157270;23;20159;-91
2022/01/12 15:09:22;;;;;;;15.33;10.23;;;;;;;;;;6157689;23;20182;-86
2022/01/12 15:11:51;;;;;;;12.27;10.90;;;;;;;;;;6157478;23;20234;-86
2022/01/12 15:14:43;;;;;;;12.57;11.13;;;;;;;;;;6157884;23;20215;-87
2022/01/12 15:17:13;;;;;;;14.03;10.33;;;;;;;;;;6156419;23;20241;-87
2022/01/12 15:19:40;;;;;;;12.77;10.50;;;;;;;;;;6158201;23;20194;-87
2022/01/12 15:22:07;;;;;;;14.83;10.80;;;;;;;;;;6157414;23;20174;-88
2022/01/12 15:24:35;;;;;;;14.07;11.27;;;;;;;;;;6165204;23;20199;-87
2022/01/12 15:27:03;;;;;;;11.57;10.27;;;;;;;;;;6178524;23;20166;-88
2022/01/12 15:29:30;;;;;;;12.83;11.17;;;;;;;;;;6177579;23;20231;-88
2022/01/12 15:31:58;;;;;;;14.30;11.57;;;;;;;;;;6172026;23;20171;-88
2022/01/12 15:34:29;;;;;;;14.27;11.57;;;;;;;;;;6161392;23;20205;-89
2022/01/12 15:36:57;;;;;;;13.63;11.80;;;;;;;;;;6160760;23;20190;-90
2022/01/12 15:39:24;;;;;;;13.50;11.13;;;;;;;;;;6159924;23;20174;-88
2022/01/12 15:41:51;;;;;;;14.13;11.37;;;;;;;;;;6160740;23;20175;-88
2022/01/12 15:44:22;;;;;;;14.80;11.37;;;;;;;;;;6160608;23;20536;-89
2022/01/12 15:46:49;;;;;;;13.40;11.33;;;;;;;;;;6160291;23;20229;-89
2022/01/12 15:49:17;;;;;;;16.27;12.10;;;;;;;;;;6160365;23;20241;-88